Accueil
METAR-TAF:

METAR-TAF

Aéroports :

Aéroport international de Nouakchott-Oumtounsy

Nouakchott, Mauritanie

latitude: 18-18-36N, longitude: 015-58-11W, altitude: 3 m

Observation

Le bulletin a été fait il y a 41 minutes, à 18:30 UTC
Vent 19 kt de nord-ouest
Température 27°C
Humidité 58%
Pression 1008 hPa
Visibilité: 4000 m
Chasse-poussière élevée,

METAR: GQNO 221830Z 32019KT 4000 BLDU NSC 27/18 Q1008 NOSIG

Heure: 19:11 (19:11 UTC)

Prévision

Le bulletin a été fait il y a 2 heures et 11 minutes, à 17:00 UTC
Prévision valable du 22 à 18 UTC au 23 à 24 UTC
Vent 14 kt de nord-ouest
Visibilité: 6000 m
Evoluant progressivement
du 23 à 03 UTC au 23 à 05 UTC
Vent 10 kt de ouest

TAF: GQNO 221700Z 2218/2324 32014KT 6000 NSC BECMG 2303/2305 26010KT

Observations et prévisions météorologiques de plus de 4000 aéroports (messages METAR et TAF).

Les stations disponibles sont représentées par des disques jaunes et rouges sur la carte.

Passer la souris dessus pour voir le nom de la station.

Cliquer dessus pour voir les observations et prévisions météorologiques.

Pour changer de carte: cliquez sur les boutons verts avec une croix noire pour zoomer, sur le bouton vert avec un tiret pour effectuer un zoom arrière, ou sur les flèches vertes pour les cartes adjacentes.


METAR-TAF: